sensor_id;sensor_type;location;lat;lon;timestamp;pressure;altitude;pressure_sealevel;temperature;humidity
9709;BME280;4893;42.024;23.098;2022-08-19T00:01:20;96605.06;;;21.12;100.00
9709;BME280;4893;42.024;23.098;2022-08-19T00:03:46;96609.66;;;21.22;100.00
9709;BME280;4893;42.024;23.098;2022-08-19T00:06:13;96616.84;;;21.26;100.00
9709;BME280;4893;42.024;23.098;2022-08-19T00:08:39;96614.63;;;21.18;100.00
9709;BME280;4893;42.024;23.098;2022-08-19T00:11:06;96620.94;;;21.17;100.00
9709;BME280;4893;42.024;23.098;2022-08-19T00:13:33;96636.34;;;21.25;100.00
9709;BME280;4893;42.024;23.098;2022-08-19T00:15:59;96636.81;;;21.17;100.00
9709;BME280;4893;42.024;23.098;2022-08-19T00:18:25;96626.22;;;21.12;100.00
9709;BME280;4893;42.024;23.098;2022-08-19T00:20:51;96601.81;;;21.05;100.00
9709;BME280;4893;42.024;23.098;2022-08-19T00:23:16;96601.25;;;21.03;100.00
9709;BME280;4893;42.024;23.098;2022-08-19T00:25:42;96604.47;;;21.05;100.00
9709;BME280;4893;42.024;23.098;2022-08-19T00:28:07;96603.34;;;21.01;100.00
9709;BME280;4893;42.024;23.098;2022-08-19T00:30:33;96612.13;;;21.07;100.00
9709;BME280;4893;42.024;23.098;2022-08-19T00:32:59;96613.91;;;21.01;100.00
9709;BME280;4893;42.024;23.098;2022-08-19T00:35:24;96624.28;;;21.08;100.00
9709;BME280;4893;42.024;23.098;2022-08-19T00:37:52;96614.06;;;20.95;100.00
9709;BME280;4893;42.024;23.098;2022-08-19T00:40:17;96615.88;;;20.67;100.00
9709;BME280;4893;42.024;23.098;2022-08-19T00:42:45;96619.84;;;20.92;100.00
9709;BME280;4893;42.024;23.098;2022-08-19T00:45:15;96620.66;;;20.92;100.00
9709;BME280;4893;42.024;23.098;2022-08-19T00:47:42;96608.06;;;20.56;100.00
9709;BME280;4893;42.024;23.098;2022-08-19T00:50:10;96601.13;;;20.50;100.00
9709;BME280;4893;42.024;23.098;2022-08-19T00:52:40;96604.09;;;20.53;100.00
9709;BME280;4893;42.024;23.098;2022-08-19T00:55:09;96609.72;;;20.62;100.00
9709;BME280;4893;42.024;23.098;2022-08-19T00:57:40;96583.63;;;20.06;100.00
9709;BME280;4893;42.024;23.098;2022-08-19T01:00:10;96603.06;;;20.00;100.00
9709;BME280;4893;42.024;23.098;2022-08-19T01:02:37;96602.50;;;20.14;100.00
9709;BME280;4893;42.024;23.098;2022-08-19T01:05:06;96607.13;;;20.24;100.00
9709;BME280;4893;42.024;23.098;2022-08-19T01:07:34;96609.34;;;20.32;100.00
9709;BME280;4893;42.024;23.098;2022-08-19T01:10:00;96617.97;;;19.94;100.00
9709;BME280;4893;42.024;23.098;2022-08-19T01:12:26;96621.34;;;19.90;100.00
9709;BME280;4893;42.024;23.098;2022-08-19T01:14:52;96620.13;;;20.14;100.00
9709;BME280;4893;42.024;23.098;2022-08-19T01:17:19;96615.59;;;20.26;100.00
9709;BME280;4893;42.024;23.098;2022-08-19T01:19:46;96617.19;;;20.27;100.00
9709;BME280;4893;42.024;23.098;2022-08-19T01:24:47;96613.03;;;20.31;100.00
9709;BME280;4893;42.024;23.098;2022-08-19T01:27:12;96611.66;;;20.28;100.00
9709;BME280;4893;42.024;23.098;2022-08-19T01:29:40;96616.69;;;20.30;100.00
9709;BME280;4893;42.024;23.098;2022-08-19T01:32:09;96610.81;;;20.23;100.00
9709;BME280;4893;42.024;23.098;2022-08-19T01:34:37;96605.34;;;20.13;100.00
9709;BME280;4893;42.024;23.098;2022-08-19T01:37:10;96622.53;;;19.99;100.00
9709;BME280;4893;42.024;23.098;2022-08-19T01:39:38;96607.34;;;19.89;100.00
9709;BME280;4893;42.024;23.098;2022-08-19T01:42:04;96622.44;;;20.10;100.00
9709;BME280;4893;42.024;23.098;2022-08-19T01:44:31;96623.91;;;20.01;100.00
9709;BME280;4893;42.024;23.098;2022-08-19T01:46:56;96626.47;;;19.96;100.00
9709;BME280;4893;42.024;23.098;2022-08-19T01:49:24;96629.59;;;19.93;100.00
9709;BME280;4893;42.024;23.098;2022-08-19T01:51:53;96612.25;;;19.81;100.00
9709;BME280;4893;42.024;23.098;2022-08-19T01:54:20;96630.56;;;19.87;100.00
9709;BME280;4893;42.024;23.098;2022-08-19T01:56:46;96632.47;;;19.92;100.00
9709;BME280;4893;42.024;23.098;2022-08-19T01:59:16;96632.13;;;19.88;100.00
9709;BME280;4893;42.024;23.098;2022-08-19T02:01:42;96625.19;;;19.82;100.00
9709;BME280;4893;42.024;23.098;2022-08-19T02:04:08;96616.88;;;19.74;100.00
9709;BME280;4893;42.024;23.098;2022-08-19T02:06:34;96602.53;;;19.65;100.00
9709;BME280;4893;42.024;23.098;2022-08-19T02:09:00;96619.50;;;19.74;100.00
9709;BME280;4893;42.024;23.098;2022-08-19T02:11:28;96618.78;;;19.78;100.00
9709;BME280;4893;42.024;23.098;2022-08-19T02:13:57;96625.59;;;19.74;100.00
9709;BME280;4893;42.024;23.098;2022-08-19T02:16:22;96614.94;;;19.53;100.00
9709;BME280;4893;42.024;23.098;2022-08-19T02:18:49;96613.91;;;19.54;100.00
9709;BME280;4893;42.024;23.098;2022-08-19T02:21:16;96621.31;;;19.57;100.00
9709;BME280;4893;42.024;23.098;2022-08-19T02:23:42;96622.94;;;19.58;100.00
9709;BME280;4893;42.024;23.098;2022-08-19T02:26:08;96618.31;;;19.48;100.00
9709;BME280;4893;42.024;23.098;2022-08-19T02:28:33;96621.28;;;19.52;100.00
9709;BME280;4893;42.024;23.098;2022-08-19T02:30:59;96620.28;;;19.41;100.00
9709;BME280;4893;42.024;23.098;2022-08-19T02:33:29;96624.22;;;19.27;100.00
9709;BME280;4893;42.024;23.098;2022-08-19T02:35:57;96613.47;;;19.28;100.00
9709;BME280;4893;42.024;23.098;2022-08-19T02:38:23;96631.44;;;19.32;100.00
9709;BME280;4893;42.024;23.098;2022-08-19T02:41:03;96631.63;;;19.42;100.00
9709;BME280;4893;42.024;23.098;2022-08-19T02:43:31;96616.06;;;19.40;100.00
9709;BME280;4893;42.024;23.098;2022-08-19T02:45:57;96625.78;;;19.40;100.00
9709;BME280;4893;42.024;23.098;2022-08-19T02:48:25;96625.31;;;19.43;100.00
9709;BME280;4893;42.024;23.098;2022-08-19T02:50:52;96618.47;;;19.42;100.00
9709;BME280;4893;42.024;23.098;2022-08-19T02:53:26;96628.16;;;19.13;100.00
9709;BME280;4893;42.024;23.098;2022-08-19T02:55:52;96627.72;;;19.16;100.00
9709;BME280;4893;42.024;23.098;2022-08-19T02:58:18;96638.31;;;19.21;100.00
9709;BME280;4893;42.024;23.098;2022-08-19T03:00:46;96630.03;;;19.12;100.00
9709;BME280;4893;42.024;23.098;2022-08-19T03:03:13;96630.78;;;19.13;100.00
9709;BME280;4893;42.024;23.098;2022-08-19T03:05:39;96628.97;;;19.13;100.00
9709;BME280;4893;42.024;23.098;2022-08-19T03:08:05;96632.06;;;19.10;100.00
9709;BME280;4893;42.024;23.098;2022-08-19T03:10:31;96636.19;;;19.06;100.00
9709;BME280;4893;42.024;23.098;2022-08-19T03:12:57;96637.16;;;19.00;100.00
9709;BME280;4893;42.024;23.098;2022-08-19T03:15:23;96639.09;;;18.93;100.00
9709;BME280;4893;42.024;23.098;2022-08-19T03:17:48;96647.00;;;18.93;100.00
9709;BME280;4893;42.024;23.098;2022-08-19T03:20:13;96648.88;;;18.81;100.00
9709;BME280;4893;42.024;23.098;2022-08-19T03:22:39;96650.34;;;18.89;100.00
9709;BME280;4893;42.024;23.098;2022-08-19T03:25:05;96639.41;;;18.80;100.00
9709;BME280;4893;42.024;23.098;2022-08-19T03:27:30;96631.84;;;18.72;100.00
9709;BME280;4893;42.024;23.098;2022-08-19T03:29:56;96628.66;;;18.70;100.00
9709;BME280;4893;42.024;23.098;2022-08-19T03:32:21;96638.50;;;18.75;100.00
9709;BME280;4893;42.024;23.098;2022-08-19T03:34:47;96638.50;;;18.63;100.00
9709;BME280;4893;42.024;23.098;2022-08-19T03:37:13;96642.28;;;18.67;100.00
9709;BME280;4893;42.024;23.098;2022-08-19T03:39:40;96641.94;;;18.64;100.00
9709;BME280;4893;42.024;23.098;2022-08-19T03:42:07;96637.47;;;18.64;100.00
9709;BME280;4893;42.024;23.098;2022-08-19T03:44:33;96647.19;;;18.75;100.00
9709;BME280;4893;42.024;23.098;2022-08-19T03:47:01;96632.88;;;18.71;100.00
9709;BME280;4893;42.024;23.098;2022-08-19T03:49:29;96648.06;;;18.81;100.00
9709;BME280;4893;42.024;23.098;2022-08-19T03:51:57;96636.78;;;18.69;100.00
9709;BME280;4893;42.024;23.098;2022-08-19T03:54:24;96635.75;;;18.70;100.00
9709;BME280;4893;42.024;23.098;2022-08-19T03:56:51;96643.75;;;18.75;100.00
9709;BME280;4893;42.024;23.098;2022-08-19T03:59:22;96646.81;;;18.83;100.00
9709;BME280;4893;42.024;23.098;2022-08-19T04:01:50;96659.28;;;18.88;100.00
9709;BME280;4893;42.024;23.098;2022-08-19T04:04:15;96657.13;;;18.73;100.00
9709;BME280;4893;42.024;23.098;2022-08-19T04:06:41;96659.22;;;18.60;100.00
9709;BME280;4893;42.024;23.098;2022-08-19T04:09:10;96670.91;;;18.52;100.00
9709;BME280;4893;42.024;23.098;2022-08-19T04:11:42;96668.38;;;18.69;100.00
9709;BME280;4893;42.024;23.098;2022-08-19T04:14:10;96667.06;;;18.83;100.00
9709;BME280;4893;42.024;23.098;2022-08-19T04:16:35;96663.47;;;19.00;100.00
9709;BME280;4893;42.024;23.098;2022-08-19T04:19:08;96660.31;;;19.15;100.00
9709;BME280;4893;42.024;23.098;2022-08-19T04:21:33;96670.25;;;19.24;100.00
9709;BME280;4893;42.024;23.098;2022-08-19T04:23:59;96661.22;;;19.32;100.00
9709;BME280;4893;42.024;23.098;2022-08-19T04:26:28;96671.63;;;19.39;100.00
9709;BME280;4893;42.024;23.098;2022-08-19T04:28:57;96670.66;;;19.45;100.00
9709;BME280;4893;42.024;23.098;2022-08-19T04:31:26;96675.78;;;19.51;100.00
9709;BME280;4893;42.024;23.098;2022-08-19T04:33:53;96674.50;;;19.54;100.00
9709;BME280;4893;42.024;23.098;2022-08-19T04:36:31;96685.22;;;19.64;100.00
9709;BME280;4893;42.024;23.098;2022-08-19T04:38:59;96687.78;;;19.75;100.00
9709;BME280;4893;42.024;23.098;2022-08-19T04:41:26;96688.78;;;19.86;100.00
9709;BME280;4893;42.024;23.098;2022-08-19T04:44:10;96689.50;;;19.98;100.00
9709;BME280;4893;42.024;23.098;2022-08-19T04:46:36;96684.78;;;20.00;100.00
9709;BME280;4893;42.024;23.098;2022-08-19T04:49:03;96695.66;;;20.20;100.00
9709;BME280;4893;42.024;23.098;2022-08-19T04:51:31;96700.16;;;20.36;100.00
9709;BME280;4893;42.024;23.098;2022-08-19T04:53:57;96703.81;;;20.35;100.00
9709;BME280;4893;42.024;23.098;2022-08-19T04:56:24;96700.03;;;20.64;100.00
9709;BME280;4893;42.024;23.098;2022-08-19T04:58:52;96696.31;;;21.73;100.00
9709;BME280;4893;42.024;23.098;2022-08-19T05:01:21;96716.88;;;23.69;100.00
9709;BME280;4893;42.024;23.098;2022-08-19T05:03:47;96704.25;;;25.35;100.00
9709;BME280;4893;42.024;23.098;2022-08-19T05:06:14;96707.09;;;26.88;100.00
9709;BME280;4893;42.024;23.098;2022-08-19T05:08:41;96721.53;;;28.14;98.11
9709;BME280;4893;42.024;23.098;2022-08-19T05:11:15;96721.38;;;29.15;89.48
9709;BME280;4893;42.024;23.098;2022-08-19T05:13:41;96726.44;;;29.93;81.02
9709;BME280;4893;42.024;23.098;2022-08-19T05:16:09;96722.44;;;30.48;70.34
9709;BME280;4893;42.024;23.098;2022-08-19T05:18:34;96720.03;;;31.30;69.99
9709;BME280;4893;42.024;23.098;2022-08-19T05:21:20;96723.09;;;31.46;64.62
9709;BME280;4893;42.024;23.098;2022-08-19T05:24:05;96723.03;;;32.10;64.82
9709;BME280;4893;42.024;23.098;2022-08-19T05:26:38;96721.06;;;32.71;57.74
9709;BME280;4893;42.024;23.098;2022-08-19T05:29:04;96731.50;;;31.70;55.74
9709;BME280;4893;42.024;23.098;2022-08-19T05:31:30;96717.97;;;32.09;67.17
9709;BME280;4893;42.024;23.098;2022-08-19T05:33:56;96713.94;;;32.75;59.53
9709;BME280;4893;42.024;23.098;2022-08-19T05:36:24;96715.03;;;32.74;58.94
9709;BME280;4893;42.024;23.098;2022-08-19T05:38:50;96702.84;;;33.14;57.69
9709;BME280;4893;42.024;23.098;2022-08-19T05:41:17;96700.56;;;33.62;58.43
9709;BME280;4893;42.024;23.098;2022-08-19T05:43:43;96716.84;;;33.95;57.56
9709;BME280;4893;42.024;23.098;2022-08-19T05:46:16;96709.34;;;33.21;52.43
9709;BME280;4893;42.024;23.098;2022-08-19T05:48:43;96716.13;;;31.45;59.12
9709;BME280;4893;42.024;23.098;2022-08-19T05:51:09;96704.91;;;30.73;56.97
9709;BME280;4893;42.024;23.098;2022-08-19T05:53:35;96705.50;;;30.61;72.67
9709;BME280;4893;42.024;23.098;2022-08-19T05:56:08;96673.06;;;29.07;75.70
9709;BME280;4893;42.024;23.098;2022-08-19T05:58:36;96714.16;;;28.38;67.00
9709;BME280;4893;42.024;23.098;2022-08-19T06:01:03;96709.66;;;28.98;79.34
9709;BME280;4893;42.024;23.098;2022-08-19T06:03:35;96703.88;;;30.82;61.96
9709;BME280;4893;42.024;23.098;2022-08-19T06:06:03;96708.19;;;29.81;64.64
9709;BME280;4893;42.024;23.098;2022-08-19T06:08:29;96710.19;;;31.82;75.66
9709;BME280;4893;42.024;23.098;2022-08-19T06:10:55;96712.44;;;31.97;56.27
9709;BME280;4893;42.024;23.098;2022-08-19T06:13:21;96709.56;;;32.02;58.17
9709;BME280;4893;42.024;23.098;2022-08-19T06:15:48;96703.88;;;32.37;53.45
9709;BME280;4893;42.024;23.098;2022-08-19T06:18:15;96714.13;;;31.20;58.01
9709;BME280;4893;42.024;23.098;2022-08-19T06:20:41;96719.59;;;32.82;48.66
9709;BME280;4893;42.024;23.098;2022-08-19T06:23:07;96715.41;;;32.47;52.73
9709;BME280;4893;42.024;23.098;2022-08-19T06:25:34;96717.94;;;34.14;49.45
9709;BME280;4893;42.024;23.098;2022-08-19T06:28:00;96716.63;;;34.00;45.79
9709;BME280;4893;42.024;23.098;2022-08-19T06:30:25;96721.41;;;32.26;49.94
9709;BME280;4893;42.024;23.098;2022-08-19T06:32:51;96707.53;;;33.63;45.11
9709;BME280;4893;42.024;23.098;2022-08-19T06:35:17;96691.34;;;35.02;48.31
9709;BME280;4893;42.024;23.098;2022-08-19T06:37:42;96714.84;;;36.53;44.19
9709;BME280;4893;42.024;23.098;2022-08-19T06:40:10;96721.16;;;37.31;44.02
9709;BME280;4893;42.024;23.098;2022-08-19T06:42:37;96715.22;;;37.41;42.03
9709;BME280;4893;42.024;23.098;2022-08-19T06:45:04;96719.13;;;37.44;38.63
9709;BME280;4893;42.024;23.098;2022-08-19T06:47:30;96717.72;;;32.74;43.31
9709;BME280;4893;42.024;23.098;2022-08-19T06:49:58;96712.81;;;33.51;43.09
9709;BME280;4893;42.024;23.098;2022-08-19T06:52:32;96716.22;;;34.51;43.77
9709;BME280;4893;42.024;23.098;2022-08-19T06:54:58;96716.00;;;35.01;42.71
9709;BME280;4893;42.024;23.098;2022-08-19T06:57:25;96719.16;;;36.54;39.74
9709;BME280;4893;42.024;23.098;2022-08-19T06:59:51;96721.38;;;33.15;43.48
9709;BME280;4893;42.024;23.098;2022-08-19T07:02:17;96711.00;;;34.78;43.61
9709;BME280;4893;42.024;23.098;2022-08-19T07:04:42;96716.22;;;35.32;44.00
9709;BME280;4893;42.024;23.098;2022-08-19T07:07:11;96711.84;;;35.87;43.69
9709;BME280;4893;42.024;23.098;2022-08-19T07:09:40;96713.53;;;36.90;43.68
9709;BME280;4893;42.024;23.098;2022-08-19T07:12:07;96709.09;;;36.27;44.08
9709;BME280;4893;42.024;23.098;2022-08-19T07:14:34;96714.44;;;34.34;40.80
9709;BME280;4893;42.024;23.098;2022-08-19T07:17:04;96707.34;;;32.38;45.75
9709;BME280;4893;42.024;23.098;2022-08-19T07:19:30;96701.59;;;35.33;43.33
9709;BME280;4893;42.024;23.098;2022-08-19T07:21:57;96714.66;;;36.46;42.57
9709;BME280;4893;42.024;23.098;2022-08-19T07:24:25;96705.44;;;35.08;40.10
9709;BME280;4893;42.024;23.098;2022-08-19T07:26:54;96704.06;;;35.62;39.54
9709;BME280;4893;42.024;23.098;2022-08-19T07:29:21;96714.38;;;34.87;40.57
9709;BME280;4893;42.024;23.098;2022-08-19T07:31:49;96697.75;;;35.22;45.36
9709;BME280;4893;42.024;23.098;2022-08-19T07:34:15;96705.25;;;36.00;40.98
9709;BME280;4893;42.024;23.098;2022-08-19T07:36:42;96700.03;;;35.08;38.26
9709;BME280;4893;42.024;23.098;2022-08-19T07:39:14;96702.38;;;35.33;38.13
9709;BME280;4893;42.024;23.098;2022-08-19T07:41:40;96705.13;;;35.45;41.30
9709;BME280;4893;42.024;23.098;2022-08-19T07:44:07;96711.34;;;36.37;39.91
9709;BME280;4893;42.024;23.098;2022-08-19T07:46:36;96703.94;;;34.53;39.65
9709;BME280;4893;42.024;23.098;2022-08-19T07:49:03;96702.69;;;35.92;43.22
9709;BME280;4893;42.024;23.098;2022-08-19T07:51:29;96690.53;;;35.62;37.78
9709;BME280;4893;42.024;23.098;2022-08-19T07:53:54;96700.28;;;36.02;37.79
9709;BME280;4893;42.024;23.098;2022-08-19T07:56:20;96686.50;;;34.95;40.20
9709;BME280;4893;42.024;23.098;2022-08-19T07:58:49;96688.00;;;35.93;43.46
9709;BME280;4893;42.024;23.098;2022-08-19T08:01:18;96694.94;;;36.18;40.09
9709;BME280;4893;42.024;23.098;2022-08-19T08:03:45;96694.63;;;36.07;41.66
9709;BME280;4893;42.024;23.098;2022-08-19T08:06:29;96684.16;;;33.96;40.78
9709;BME280;4893;42.024;23.098;2022-08-19T08:09:15;96687.09;;;33.83;41.09
9709;BME280;4893;42.024;23.098;2022-08-19T08:11:58;96684.75;;;34.67;39.95
9709;BME280;4893;42.024;23.098;2022-08-19T08:14:30;96685.41;;;35.57;40.12
9709;BME280;4893;42.024;23.098;2022-08-19T08:16:57;96676.94;;;36.10;39.27
9709;BME280;4893;42.024;23.098;2022-08-19T08:19:24;96673.00;;;35.56;40.35
9709;BME280;4893;42.024;23.098;2022-08-19T08:21:51;96666.91;;;35.35;43.55
9709;BME280;4893;42.024;23.098;2022-08-19T08:24:17;96660.06;;;35.49;42.63
9709;BME280;4893;42.024;23.098;2022-08-19T08:26:43;96663.50;;;36.57;42.16
9709;BME280;4893;42.024;23.098;2022-08-19T08:29:13;96662.00;;;36.59;39.75
9709;BME280;4893;42.024;23.098;2022-08-19T08:31:43;96659.19;;;36.12;38.77
9709;BME280;4893;42.024;23.098;2022-08-19T08:34:09;96653.63;;;35.54;40.20
9709;BME280;4893;42.024;23.098;2022-08-19T08:36:38;96658.34;;;34.84;41.86
9709;BME280;4893;42.024;23.098;2022-08-19T08:39:08;96648.56;;;33.82;44.71
9709;BME280;4893;42.024;23.098;2022-08-19T08:41:55;96644.09;;;33.86;53.27
9709;BME280;4893;42.024;23.098;2022-08-19T08:44:31;96645.50;;;34.69;60.68
9709;BME280;4893;42.024;23.098;2022-08-19T08:47:09;96642.03;;;35.53;62.84
9709;BME280;4893;42.024;23.098;2022-08-19T08:49:49;96638.38;;;34.41;49.90
9709;BME280;4893;42.024;23.098;2022-08-19T08:52:29;96644.03;;;33.53;53.00
9709;BME280;4893;42.024;23.098;2022-08-19T08:54:58;96637.25;;;34.09;45.82
9709;BME280;4893;42.024;23.098;2022-08-19T09:00:05;96627.41;;;34.70;48.70
9709;BME280;4893;42.024;23.098;2022-08-19T09:02:31;96629.97;;;33.48;48.63
9709;BME280;4893;42.024;23.098;2022-08-19T09:04:57;96623.50;;;34.35;59.01
9709;BME280;4893;42.024;23.098;2022-08-19T09:10:14;96610.03;;;32.82;48.51
9709;BME280;4893;42.024;23.098;2022-08-19T09:13:13;96617.25;;;34.10;59.20
9709;BME280;4893;42.024;23.098;2022-08-19T09:15:45;96611.97;;;34.46;51.16
9709;BME280;4893;42.024;23.098;2022-08-19T09:18:14;96611.66;;;34.27;45.97
9709;BME280;4893;42.024;23.098;2022-08-19T09:20:41;96612.66;;;34.43;50.99
9709;BME280;4893;42.024;23.098;2022-08-19T09:23:07;96604.56;;;34.43;54.63
9709;BME280;4893;42.024;23.098;2022-08-19T09:25:33;96588.13;;;34.60;47.86
9709;BME280;4893;42.024;23.098;2022-08-19T09:28:00;96593.41;;;34.81;48.45
9709;BME280;4893;42.024;23.098;2022-08-19T09:30:31;96590.41;;;35.07;51.86
9709;BME280;4893;42.024;23.098;2022-08-19T09:32:57;96575.31;;;34.81;46.38
9709;BME280;4893;42.024;23.098;2022-08-19T09:35:27;96583.19;;;34.86;47.63
9709;BME280;4893;42.024;23.098;2022-08-19T09:37:54;96581.06;;;34.80;46.17
9709;BME280;4893;42.024;23.098;2022-08-19T09:40:20;96563.41;;;34.70;53.08
9709;BME280;4893;42.024;23.098;2022-08-19T09:42:46;96567.00;;;34.98;49.69
9709;BME280;4893;42.024;23.098;2022-08-19T09:45:14;96563.06;;;35.08;55.56
9709;BME280;4893;42.024;23.098;2022-08-19T09:47:40;96558.19;;;35.14;52.13
9709;BME280;4893;42.024;23.098;2022-08-19T09:50:07;96562.28;;;34.95;46.49
9709;BME280;4893;42.024;23.098;2022-08-19T09:52:33;96550.44;;;34.88;47.37
9709;BME280;4893;42.024;23.098;2022-08-19T09:55:05;96555.50;;;35.14;47.44
9709;BME280;4893;42.024;23.098;2022-08-19T09:57:31;96542.38;;;34.52;46.67
9709;BME280;4893;42.024;23.098;2022-08-19T09:59:57;96542.25;;;34.48;47.80
9709;BME280;4893;42.024;23.098;2022-08-19T10:02:22;96539.06;;;34.34;47.60
9709;BME280;4893;42.024;23.098;2022-08-19T10:04:48;96535.69;;;34.37;47.22
9709;BME280;4893;42.024;23.098;2022-08-19T10:07:32;96526.72;;;34.33;50.95
9709;BME280;4893;42.024;23.098;2022-08-19T10:09:57;96519.31;;;34.54;50.78
9709;BME280;4893;42.024;23.098;2022-08-19T10:12:22;96527.38;;;34.18;48.84
9709;BME280;4893;42.024;23.098;2022-08-19T10:14:48;96523.28;;;34.00;47.83
9709;BME280;4893;42.024;23.098;2022-08-19T10:17:13;96521.59;;;33.63;50.28
9709;BME280;4893;42.024;23.098;2022-08-19T10:19:39;96521.50;;;33.72;48.80
9709;BME280;4893;42.024;23.098;2022-08-19T10:22:06;96524.69;;;33.86;50.31
9709;BME280;4893;42.024;23.098;2022-08-19T10:24:33;96519.84;;;34.24;56.95
9709;BME280;4893;42.024;23.098;2022-08-19T10:27:00;96515.72;;;34.50;59.08
9709;BME280;4893;42.024;23.098;2022-08-19T10:29:29;96511.22;;;34.54;54.46
9709;BME280;4893;42.024;23.098;2022-08-19T10:31:55;96509.56;;;33.93;48.24
9709;BME280;4893;42.024;23.098;2022-08-19T10:34:21;96503.78;;;33.83;49.19
9709;BME280;4893;42.024;23.098;2022-08-19T10:36:47;96498.56;;;33.98;64.60
9709;BME280;4893;42.024;23.098;2022-08-19T10:39:13;96491.53;;;33.85;53.27
9709;BME280;4893;42.024;23.098;2022-08-19T10:41:39;96497.13;;;33.68;52.09
9709;BME280;4893;42.024;23.098;2022-08-19T10:44:08;96488.09;;;33.97;59.21
9709;BME280;4893;42.024;23.098;2022-08-19T10:46:37;96486.16;;;33.85;50.31
9709;BME280;4893;42.024;23.098;2022-08-19T10:49:04;96480.09;;;33.43;48.80
9709;BME280;4893;42.024;23.098;2022-08-19T10:51:30;96486.75;;;33.58;47.82
9709;BME280;4893;42.024;23.098;2022-08-19T10:54:15;96476.81;;;33.38;47.14
9709;BME280;4893;42.024;23.098;2022-08-19T10:56:40;96480.44;;;33.21;47.89
9709;BME280;4893;42.024;23.098;2022-08-19T10:59:19;96469.06;;;33.16;49.88
9709;BME280;4893;42.024;23.098;2022-08-19T11:01:47;96477.06;;;33.45;49.52
9709;BME280;4893;42.024;23.098;2022-08-19T11:04:13;96475.25;;;33.16;48.38
9709;BME280;4893;42.024;23.098;2022-08-19T11:06:43;96470.47;;;32.52;46.83
9709;BME280;4893;42.024;23.098;2022-08-19T11:09:10;96465.31;;;32.88;46.59
9709;BME280;4893;42.024;23.098;2022-08-19T11:11:37;96461.03;;;31.36;53.80
9709;BME280;4893;42.024;23.098;2022-08-19T11:14:16;96458.09;;;31.75;56.01
9709;BME280;4893;42.024;23.098;2022-08-19T11:16:45;96464.56;;;32.79;51.88
9709;BME280;4893;42.024;23.098;2022-08-19T11:19:11;96464.59;;;32.99;54.01
9709;BME280;4893;42.024;23.098;2022-08-19T11:21:42;96452.28;;;32.98;52.74
9709;BME280;4893;42.024;23.098;2022-08-19T11:24:13;96440.78;;;33.10;53.84
9709;BME280;4893;42.024;23.098;2022-08-19T11:26:41;96451.47;;;32.98;51.91
9709;BME280;4893;42.024;23.098;2022-08-19T11:29:09;96448.84;;;33.10;52.96
9709;BME280;4893;42.024;23.098;2022-08-19T11:31:41;96435.19;;;33.15;50.47
9709;BME280;4893;42.024;23.098;2022-08-19T11:34:10;96427.56;;;33.17;51.74
9709;BME280;4893;42.024;23.098;2022-08-19T11:36:39;96427.47;;;33.25;48.47
9709;BME280;4893;42.024;23.098;2022-08-19T11:39:06;96429.94;;;33.30;52.92
9709;BME280;4893;42.024;23.098;2022-08-19T11:41:32;96422.28;;;33.41;52.88
9709;BME280;4893;42.024;23.098;2022-08-19T11:43:58;96418.13;;;33.43;59.33
9709;BME280;4893;42.024;23.098;2022-08-19T11:46:27;96408.66;;;33.37;62.57
9709;BME280;4893;42.024;23.098;2022-08-19T11:48:58;96410.06;;;33.23;53.37
9709;BME280;4893;42.024;23.098;2022-08-19T11:51:25;96400.41;;;33.54;57.33
9709;BME280;4893;42.024;23.098;2022-08-19T11:53:52;96411.69;;;33.68;57.63
9709;BME280;4893;42.024;23.098;2022-08-19T11:56:19;96399.56;;;33.75;49.49
9709;BME280;4893;42.024;23.098;2022-08-19T11:58:45;96399.69;;;33.78;48.38
9709;BME280;4893;42.024;23.098;2022-08-19T12:01:12;96391.16;;;34.00;48.53
9709;BME280;4893;42.024;23.098;2022-08-19T12:03:40;96380.66;;;33.62;49.76
9709;BME280;4893;42.024;23.098;2022-08-19T12:06:08;96388.22;;;33.81;45.33
9709;BME280;4893;42.024;23.098;2022-08-19T12:08:34;96380.50;;;33.92;47.03
9709;BME280;4893;42.024;23.098;2022-08-19T12:10:59;96370.38;;;34.01;44.85
9709;BME280;4893;42.024;23.098;2022-08-19T12:13:29;96369.81;;;34.19;43.47
9709;BME280;4893;42.024;23.098;2022-08-19T12:15:55;96376.06;;;34.35;43.38
9709;BME280;4893;42.024;23.098;2022-08-19T12:18:21;96373.84;;;34.49;42.97
9709;BME280;4893;42.024;23.098;2022-08-19T12:20:46;96369.13;;;34.46;47.92
9709;BME280;4893;42.024;23.098;2022-08-19T12:23:13;96359.09;;;34.47;42.03
9709;BME280;4893;42.024;23.098;2022-08-19T12:25:44;96358.72;;;34.60;45.44
9709;BME280;4893;42.024;23.098;2022-08-19T12:28:21;96360.91;;;34.82;41.74
9709;BME280;4893;42.024;23.098;2022-08-19T12:30:48;96353.22;;;34.69;43.13
9709;BME280;4893;42.024;23.098;2022-08-19T12:33:14;96341.16;;;34.66;43.52
9709;BME280;4893;42.024;23.098;2022-08-19T12:35:44;96354.28;;;34.80;44.38
9709;BME280;4893;42.024;23.098;2022-08-19T12:38:11;96354.50;;;34.87;42.81
9709;BME280;4893;42.024;23.098;2022-08-19T12:40:37;96339.81;;;34.72;43.62
9709;BME280;4893;42.024;23.098;2022-08-19T12:43:04;96340.09;;;34.83;41.25
9709;BME280;4893;42.024;23.098;2022-08-19T12:45:29;96340.34;;;34.78;40.70
9709;BME280;4893;42.024;23.098;2022-08-19T12:47:55;96352.25;;;34.89;43.51
9709;BME280;4893;42.024;23.098;2022-08-19T12:50:20;96339.38;;;34.98;40.60
9709;BME280;4893;42.024;23.098;2022-08-19T12:52:46;96343.50;;;35.08;41.44
9709;BME280;4893;42.024;23.098;2022-08-19T12:55:14;96333.88;;;34.94;39.81
9709;BME280;4893;42.024;23.098;2022-08-19T12:57:40;96331.38;;;35.02;42.34
9709;BME280;4893;42.024;23.098;2022-08-19T13:00:09;96321.78;;;35.04;40.02
9709;BME280;4893;42.024;23.098;2022-08-19T13:02:42;96326.59;;;35.11;42.75
9709;BME280;4893;42.024;23.098;2022-08-19T13:05:12;96329.91;;;35.20;38.71
9709;BME280;4893;42.024;23.098;2022-08-19T13:07:39;96331.00;;;35.31;41.29
9709;BME280;4893;42.024;23.098;2022-08-19T13:10:06;96327.16;;;35.32;41.02
9709;BME280;4893;42.024;23.098;2022-08-19T13:12:32;96324.88;;;35.34;38.90
9709;BME280;4893;42.024;23.098;2022-08-19T13:14:58;96326.56;;;35.38;39.00
9709;BME280;4893;42.024;23.098;2022-08-19T13:17:23;96327.66;;;35.22;38.54
9709;BME280;4893;42.024;23.098;2022-08-19T13:19:49;96328.53;;;35.26;38.46